createdAt,value
2023-02-11T00:01:16.797Z,27.13
2023-02-11T00:03:43.909Z,21.25
2023-02-11T00:06:11.950Z,26.45
2023-02-11T00:08:39.987Z,27.75
2023-02-11T00:11:07.855Z,24.20
2023-02-11T00:13:35.125Z,19.50
2023-02-11T00:16:10.357Z,23.50
2023-02-11T00:18:38.657Z,20.65
2023-02-11T00:21:10.477Z,23.65
2023-02-11T00:23:37.895Z,26.40
2023-02-11T00:26:11.986Z,19.88
2023-02-11T00:31:11.830Z,17.02
2023-02-11T00:33:39.286Z,26.88
2023-02-11T00:36:09.670Z,24.42
2023-02-11T00:38:36.893Z,20.95
2023-02-11T00:41:04.248Z,21.77
2023-02-11T00:43:31.770Z,14.10
2023-02-11T00:45:59.206Z,19.25
2023-02-11T00:48:26.215Z,18.88
2023-02-11T00:50:53.208Z,17.52
2023-02-11T00:53:20.205Z,15.80
2023-02-11T00:55:47.332Z,30.05
2023-02-11T00:58:14.665Z,15.73
2023-02-11T01:00:43.059Z,18.27
2023-02-11T01:03:10.393Z,18.80
2023-02-11T01:05:37.410Z,25.42
2023-02-11T01:08:04.525Z,26.05
2023-02-11T01:10:31.958Z,18.13
2023-02-11T01:12:59.012Z,19.42
2023-02-11T01:15:26.686Z,19.25
2023-02-11T01:17:53.973Z,27.27
2023-02-11T01:20:24.670Z,19.33
2023-02-11T01:22:51.628Z,16.88
2023-02-11T01:25:18.825Z,20.33
2023-02-11T01:27:45.854Z,20.00
2023-02-11T01:30:14.188Z,23.50
2023-02-11T01:32:41.574Z,31.00
2023-02-11T01:35:09.090Z,23.10
2023-02-11T01:37:36.722Z,27.23
2023-02-11T01:40:07.732Z,23.85
2023-02-11T01:42:35.010Z,25.83
2023-02-11T01:45:22.618Z,18.67
2023-02-11T01:47:49.530Z,23.92
2023-02-11T01:50:19.082Z,30.90
2023-02-11T01:52:48.107Z,18.92
2023-02-11T01:55:35.186Z,35.20
2023-02-11T01:58:05.625Z,26.85
2023-02-11T02:00:37.325Z,21.73
2023-02-11T02:03:15.493Z,23.25
2023-02-11T02:06:12.569Z,21.80
2023-02-11T02:09:08.911Z,22.48
2023-02-11T02:11:37.289Z,23.35
2023-02-11T02:14:04.484Z,21.92
2023-02-11T02:16:36.053Z,25.17
2023-02-11T02:19:36.473Z,34.97
2023-02-11T02:22:10.662Z,21.38
2023-02-11T02:24:56.834Z,27.35
2023-02-11T02:27:36.248Z,19.80
2023-02-11T02:30:40.143Z,24.33
2023-02-11T02:33:23.279Z,17.55
2023-02-11T02:36:15.120Z,22.33
2023-02-11T02:39:01.026Z,32.65
2023-02-11T02:43:59.892Z,27.25
2023-02-11T02:46:31.543Z,26.65
2023-02-11T02:48:59.434Z,18.00
2023-02-11T02:51:32.278Z,22.25
2023-02-11T02:54:14.296Z,27.25
2023-02-11T02:57:19.379Z,24.52
2023-02-11T03:00:05.490Z,32.42
2023-02-11T03:02:50.939Z,27.65
2023-02-11T03:05:43.815Z,25.83
2023-02-11T03:08:22.383Z,25.88
2023-02-11T03:10:52.807Z,30.35
2023-02-11T03:13:26.296Z,24.15
2023-02-11T03:15:57.603Z,32.20
2023-02-11T03:18:29.183Z,23.38
2023-02-11T03:20:57.513Z,26.10
2023-02-11T03:23:30.974Z,23.63
2023-02-11T03:26:27.596Z,30.85
2023-02-11T03:29:03.886Z,33.72
2023-02-11T03:31:51.231Z,30.38
2023-02-11T03:34:35.688Z,20.25
2023-02-11T03:37:25.810Z,34.38
2023-02-11T03:40:01.212Z,22.95
2023-02-11T03:45:11.985Z,26.95
2023-02-11T03:47:47.064Z,35.10
2023-02-11T03:50:16.671Z,33.55
2023-02-11T03:52:45.485Z,29.10
2023-02-11T03:55:20.097Z,33.72
2023-02-11T03:57:47.927Z,33.10
2023-02-11T04:00:15.565Z,24.85
2023-02-11T04:02:43.855Z,39.80
2023-02-11T04:05:15.005Z,36.50
2023-02-11T04:07:42.357Z,33.75
2023-02-11T04:10:09.828Z,33.25
2023-02-11T04:12:36.894Z,33.13
2023-02-11T04:15:04.290Z,29.98
2023-02-11T04:17:31.431Z,40.40
2023-02-11T04:19:58.398Z,34.72
2023-02-11T04:22:25.458Z,31.60
2023-02-11T04:24:52.460Z,35.88
2023-02-11T04:27:19.740Z,35.97
2023-02-11T04:29:46.695Z,43.10
2023-02-11T04:32:14.003Z,51.78
2023-02-11T04:34:40.960Z,37.35
2023-02-11T04:37:08.589Z,50.72
2023-02-11T04:39:36.062Z,37.58
2023-02-11T04:42:03.168Z,36.95
2023-02-11T04:44:30.189Z,45.85
2023-02-11T04:46:57.731Z,36.28
2023-02-11T04:49:24.987Z,43.85
2023-02-11T04:51:52.087Z,45.05
2023-02-11T04:54:19.171Z,44.95
2023-02-11T04:56:46.518Z,41.85
2023-02-11T04:59:13.634Z,44.42
2023-02-11T05:01:41.528Z,45.63
2023-02-11T05:04:08.675Z,42.08
2023-02-11T05:06:35.697Z,46.78
2023-02-11T05:09:02.809Z,45.63
2023-02-11T05:11:29.913Z,42.30
2023-02-11T05:13:56.872Z,46.58
2023-02-11T05:16:23.999Z,45.47
2023-02-11T05:18:52.630Z,49.83
2023-02-11T05:21:19.787Z,48.70
2023-02-11T05:23:48.488Z,46.13
2023-02-11T05:26:16.540Z,43.38
2023-02-11T05:28:44.603Z,40.85
2023-02-11T05:31:15.041Z,42.60
2023-02-11T05:33:42.635Z,35.67
2023-02-11T05:36:11.910Z,48.85
2023-02-11T05:38:39.678Z,42.13
2023-02-11T05:41:07.499Z,41.47
2023-02-11T05:43:37.671Z,41.00
2023-02-11T05:46:05.668Z,40.10
2023-02-11T05:48:32.855Z,42.60
2023-02-11T05:51:00.136Z,42.67
2023-02-11T05:53:27.144Z,46.17
2023-02-11T05:55:54.329Z,44.55
2023-02-11T05:58:21.226Z,42.83
2023-02-11T06:00:48.271Z,48.33
2023-02-11T06:03:15.347Z,52.05
2023-02-11T06:05:44.527Z,54.20
2023-02-11T06:08:12.104Z,52.70
2023-02-11T06:10:39.291Z,57.92
2023-02-11T06:13:06.575Z,47.05
2023-02-11T06:15:33.605Z,51.65
2023-02-11T06:18:00.486Z,48.63
2023-02-11T06:20:27.984Z,52.33
2023-02-11T06:22:55.001Z,53.22
2023-02-11T06:25:22.091Z,53.05
2023-02-11T06:27:48.972Z,57.17
2023-02-11T06:30:16.329Z,52.00
2023-02-11T06:32:45.502Z,57.72
2023-02-11T06:35:14.433Z,52.08
2023-02-11T06:37:41.798Z,61.47
2023-02-11T06:40:09.536Z,62.90
2023-02-11T06:42:38.825Z,61.33
2023-02-11T06:45:06.419Z,69.63
2023-02-11T06:47:33.406Z,60.80
2023-02-11T06:50:00.579Z,74.25
2023-02-11T06:52:27.636Z,61.80
2023-02-11T06:54:54.942Z,64.40
2023-02-11T06:57:21.826Z,69.45
2023-02-11T06:59:48.942Z,71.65
2023-02-11T07:02:16.092Z,77.15
2023-02-11T07:04:44.401Z,74.65
2023-02-11T07:07:12.317Z,67.55
2023-02-11T07:09:39.327Z,79.55
2023-02-11T07:12:06.542Z,71.88
2023-02-11T07:14:33.492Z,74.50
2023-02-11T07:17:00.501Z,76.85
2023-02-11T07:19:27.475Z,68.25
2023-02-11T07:21:55.277Z,75.30
2023-02-11T07:24:23.437Z,72.80
2023-02-11T07:26:50.552Z,75.78
2023-02-11T07:29:17.489Z,73.00
2023-02-11T07:31:44.598Z,83.60
2023-02-11T07:34:12.164Z,73.90
2023-02-11T07:36:40.249Z,80.20
2023-02-11T07:39:07.307Z,86.78
2023-02-11T07:41:37.779Z,76.70
2023-02-11T07:44:05.847Z,74.97
2023-02-11T07:46:34.749Z,75.55
2023-02-11T07:49:01.914Z,83.95
2023-02-11T07:51:30.253Z,72.30
2023-02-11T07:53:59.351Z,81.28
2023-02-11T07:56:26.788Z,82.25
2023-02-11T07:58:55.185Z,77.40
2023-02-11T08:01:26.176Z,77.88
2023-02-11T08:03:53.916Z,73.38
2023-02-11T08:06:23.154Z,72.20
2023-02-11T08:08:50.561Z,73.57
2023-02-11T08:11:24.014Z,68.90
2023-02-11T08:13:51.570Z,75.18
2023-02-11T08:16:25.041Z,73.95
2023-02-11T08:18:54.235Z,67.65
2023-02-11T08:21:21.459Z,69.05
2023-02-11T08:23:49.892Z,68.30
2023-02-11T08:26:23.512Z,63.80
2023-02-11T08:28:53.140Z,66.20
2023-02-11T08:31:23.091Z,63.38
2023-02-11T08:33:50.895Z,61.83
2023-02-11T08:36:21.453Z,61.72
2023-02-11T08:38:49.222Z,57.25
2023-02-11T08:41:20.105Z,58.30
2023-02-11T08:43:47.255Z,55.17
2023-02-11T08:46:17.030Z,51.63
2023-02-11T08:48:45.470Z,56.40
2023-02-11T08:51:17.523Z,51.50
2023-02-11T08:53:45.521Z,50.03
2023-02-11T08:56:14.304Z,51.47
2023-02-11T08:58:41.907Z,45.17
2023-02-11T09:01:22.652Z,45.40
2023-02-11T09:03:50.550Z,45.97
2023-02-11T09:06:18.836Z,48.30
2023-02-11T09:08:51.658Z,44.05
2023-02-11T09:11:26.824Z,41.40
2023-02-11T09:13:54.617Z,39.13
2023-02-11T09:16:30.387Z,53.80
2023-02-11T09:19:00.164Z,39.45
2023-02-11T09:21:28.350Z,35.03
2023-02-11T09:23:56.361Z,35.13
2023-02-11T09:26:28.311Z,36.53
2023-02-11T09:28:57.462Z,47.85
2023-02-11T09:31:27.376Z,36.35
2023-02-11T09:33:58.168Z,35.08
2023-02-11T09:36:30.695Z,46.67
2023-02-11T09:39:00.356Z,35.65
2023-02-11T09:41:49.407Z,38.60
2023-02-11T09:44:28.546Z,35.53
2023-02-11T09:47:15.586Z,37.67
2023-02-11T09:49:57.924Z,35.00
2023-02-11T09:52:44.605Z,36.05
2023-02-11T09:55:29.512Z,33.53
2023-02-11T09:57:58.138Z,31.92
2023-02-11T10:00:49.894Z,34.30
2023-02-11T10:03:55.437Z,28.85
2023-02-11T10:06:41.079Z,32.70
2023-02-11T10:09:32.370Z,26.40
2023-02-11T10:12:22.134Z,31.52
2023-02-11T10:15:13.084Z,31.52
2023-02-11T10:18:18.220Z,28.75
2023-02-11T10:21:06.938Z,30.60
2023-02-11T10:23:43.101Z,31.80
2023-02-11T10:26:17.007Z,32.45
2023-02-11T10:28:51.119Z,25.15
2023-02-11T10:31:26.015Z,25.67
2023-02-11T10:34:14.713Z,27.20
2023-02-11T10:36:44.725Z,30.23
2023-02-11T10:39:13.707Z,27.02
2023-02-11T10:42:05.355Z,22.52
2023-02-11T10:44:36.420Z,26.17
2023-02-11T10:47:18.203Z,25.52
2023-02-11T10:49:46.280Z,25.17
2023-02-11T10:52:28.486Z,28.38
2023-02-11T10:54:58.594Z,28.00
2023-02-11T10:57:31.168Z,23.52
2023-02-11T11:00:02.227Z,23.98
2023-02-11T11:02:35.170Z,23.55
2023-02-11T11:05:27.073Z,22.33
2023-02-11T11:08:08.480Z,28.38
2023-02-11T11:10:44.077Z,25.63
2023-02-11T11:13:29.227Z,26.08
2023-02-11T11:16:08.424Z,21.45
2023-02-11T11:18:36.042Z,25.52
2023-02-11T11:21:13.168Z,24.52
2023-02-11T11:23:41.947Z,28.63
2023-02-11T11:26:15.007Z,20.92
2023-02-11T11:29:20.284Z,25.52
2023-02-11T11:31:52.604Z,23.40
2023-02-11T11:34:27.169Z,31.67
2023-02-11T11:36:56.590Z,21.13
2023-02-11T11:39:33.486Z,29.73
2023-02-11T11:42:26.490Z,24.63
2023-02-11T11:45:01.211Z,25.13
2023-02-11T11:47:42.438Z,26.75
2023-02-11T11:50:21.257Z,27.38
2023-02-11T11:53:01.845Z,23.70
2023-02-11T11:55:38.978Z,25.13
2023-02-11T11:58:10.633Z,25.02
2023-02-11T12:01:02.093Z,24.80
2023-02-11T12:03:31.906Z,27.23
2023-02-11T12:06:37.852Z,26.45
2023-02-11T12:09:28.478Z,20.70
2023-02-11T12:12:46.979Z,29.70
2023-02-11T12:15:32.311Z,25.25
2023-02-11T12:18:21.012Z,34.17
2023-02-11T12:21:10.691Z,23.83
2023-02-11T12:24:19.116Z,22.52
2023-02-11T12:27:13.514Z,31.40
2023-02-11T12:29:56.102Z,24.60
2023-02-11T12:32:57.617Z,26.67
2023-02-11T12:36:00.412Z,29.55
2023-02-11T12:38:52.306Z,29.98
2023-02-11T12:41:55.748Z,26.40
2023-02-11T12:44:41.344Z,23.27
2023-02-11T12:47:11.594Z,30.08
2023-02-11T12:50:17.355Z,28.85
2023-02-11T12:53:29.809Z,30.65
2023-02-11T12:56:10.675Z,26.83
2023-02-11T12:58:45.546Z,22.05
2023-02-11T13:01:25.338Z,21.20
2023-02-11T13:04:18.054Z,26.40
2023-02-11T13:06:50.616Z,23.75
2023-02-11T13:09:24.225Z,25.13
2023-02-11T13:11:58.421Z,23.20
2023-02-11T13:14:35.658Z,21.88
2023-02-11T13:17:11.568Z,25.05
2023-02-11T13:19:53.146Z,24.55
2023-02-11T13:22:28.529Z,21.17
2023-02-11T13:25:01.582Z,23.48
2023-02-11T13:27:59.441Z,24.80
2023-02-11T13:30:33.869Z,23.23
2023-02-11T13:33:01.165Z,21.27
2023-02-11T13:35:31.550Z,23.35
2023-02-11T13:38:00.382Z,23.17
2023-02-11T13:40:40.348Z,21.27
2023-02-11T13:43:23.782Z,22.33
2023-02-11T13:45:52.542Z,23.17
2023-02-11T13:48:27.972Z,21.20
2023-02-11T13:53:24.436Z,23.35
2023-02-11T13:55:54.512Z,21.33
2023-02-11T13:58:27.603Z,21.55
2023-02-11T14:00:55.432Z,19.70
2023-02-11T14:03:48.193Z,20.20
2023-02-11T14:06:40.428Z,21.15
2023-02-11T14:09:30.375Z,20.08
2023-02-11T14:12:30.290Z,20.38
2023-02-11T14:15:03.749Z,26.40
2023-02-11T14:17:34.499Z,23.27
2023-02-11T14:20:05.303Z,24.08
2023-02-11T14:22:47.989Z,20.50
2023-02-11T14:25:29.237Z,20.88
2023-02-11T14:28:10.254Z,21.30
2023-02-11T14:31:07.576Z,25.95
2023-02-11T14:33:50.049Z,21.27
2023-02-11T14:36:49.127Z,22.13
2023-02-11T14:39:41.938Z,24.17
2023-02-11T14:42:19.222Z,22.33
2023-02-11T14:44:49.155Z,25.55
2023-02-11T14:47:21.056Z,22.50
2023-02-11T14:49:49.771Z,29.33
2023-02-11T14:52:25.863Z,23.05
2023-02-11T14:55:05.129Z,21.55
2023-02-11T14:57:33.554Z,18.75
2023-02-11T15:00:03.832Z,22.75
2023-02-11T15:02:36.866Z,18.95
2023-02-11T15:05:20.741Z,20.48
2023-02-11T15:07:54.929Z,22.48
2023-02-11T15:10:44.196Z,16.85
2023-02-11T15:13:20.803Z,22.90
2023-02-11T15:15:51.057Z,17.90
2023-02-11T15:18:23.192Z,22.58
2023-02-11T15:20:51.377Z,20.20
2023-02-11T15:23:25.023Z,18.77
2023-02-11T15:25:56.003Z,26.88
2023-02-11T15:28:30.639Z,20.70
2023-02-11T15:31:20.779Z,25.30
2023-02-11T15:33:47.929Z,19.40
2023-02-11T15:36:16.241Z,19.90
2023-02-11T15:38:43.732Z,20.80
2023-02-11T15:41:37.733Z,22.50
2023-02-11T15:44:05.040Z,24.60
2023-02-11T15:46:41.778Z,22.48
2023-02-11T15:49:19.241Z,25.23
2023-02-11T15:51:47.514Z,22.77
2023-02-11T15:54:23.886Z,19.70
2023-02-11T15:56:59.700Z,19.67
2023-02-11T15:59:31.315Z,25.42
2023-02-11T16:02:05.581Z,20.80
2023-02-11T16:04:32.854Z,18.52
2023-02-11T16:06:59.956Z,22.25
2023-02-11T16:09:34.146Z,18.85
2023-02-11T16:12:19.518Z,18.27
2023-02-11T16:14:47.107Z,20.23
2023-02-11T16:17:26.135Z,22.15
2023-02-11T16:19:54.404Z,18.45
2023-02-11T16:22:30.323Z,20.65
2023-02-11T16:24:59.564Z,23.70
2023-02-11T16:27:40.486Z,19.17
2023-02-11T16:30:23.967Z,22.13
2023-02-11T16:32:53.706Z,26.33
2023-02-11T16:35:21.221Z,22.35
2023-02-11T16:37:48.366Z,21.02
2023-02-11T16:40:17.451Z,22.98
2023-02-11T16:42:44.474Z,19.23
2023-02-11T16:45:12.185Z,23.95
2023-02-11T16:47:42.661Z,22.77
2023-02-11T16:50:19.151Z,22.50
2023-02-11T16:52:47.594Z,19.02
2023-02-11T16:55:15.281Z,24.65
2023-02-11T16:57:42.510Z,19.00
2023-02-11T17:00:11.156Z,26.25
2023-02-11T17:02:38.890Z,22.10
2023-02-11T17:05:08.808Z,21.45
2023-02-11T17:07:35.860Z,23.23
2023-02-11T17:10:03.173Z,20.73
2023-02-11T17:12:30.320Z,22.15
2023-02-11T17:14:57.517Z,24.35
2023-02-11T17:17:24.497Z,22.85
2023-02-11T17:19:53.154Z,24.00
2023-02-11T17:22:20.257Z,22.13
2023-02-11T17:24:47.481Z,21.50
2023-02-11T17:27:15.613Z,21.77
2023-02-11T17:29:42.511Z,20.50
2023-02-11T17:32:10.268Z,21.25
2023-02-11T17:34:37.234Z,23.65
2023-02-11T17:37:09.349Z,25.17
2023-02-11T17:39:37.697Z,22.25
2023-02-11T17:42:06.119Z,24.67
2023-02-11T17:44:33.898Z,25.80
2023-02-11T17:47:00.911Z,22.92
2023-02-11T17:49:27.983Z,19.95
2023-02-11T17:51:55.130Z,18.73
2023-02-11T17:54:22.324Z,22.88
2023-02-11T17:56:50.971Z,21.00
2023-02-11T17:59:18.353Z,25.27
2023-02-11T18:01:45.624Z,23.20
2023-02-11T18:04:15.747Z,25.80
2023-02-11T18:06:43.506Z,20.90
2023-02-11T18:09:10.920Z,20.52
2023-02-11T18:11:39.084Z,24.02
2023-02-11T18:14:08.183Z,28.88
2023-02-11T18:16:38.744Z,27.08
2023-02-11T18:19:07.725Z,25.65
2023-02-11T18:21:34.987Z,25.40
2023-02-11T18:24:06.573Z,26.63
2023-02-11T18:26:34.873Z,23.48
2023-02-11T18:29:02.089Z,24.85
2023-02-11T18:31:29.266Z,26.75
2023-02-11T18:33:56.248Z,27.77
2023-02-11T18:36:23.559Z,28.95
2023-02-11T18:38:52.723Z,29.92
2023-02-11T18:41:20.622Z,26.60
2023-02-11T18:43:47.969Z,27.25
2023-02-11T18:46:15.857Z,22.88
2023-02-11T18:48:44.918Z,28.38
2023-02-11T18:51:16.042Z,27.23
2023-02-11T18:53:43.498Z,29.65
2023-02-11T18:56:16.849Z,30.08
2023-02-11T18:58:45.338Z,36.75
2023-02-11T19:01:18.341Z,28.52
2023-02-11T19:03:45.743Z,31.23
2023-02-11T19:06:21.848Z,32.58
2023-02-11T19:08:48.917Z,30.17
2023-02-11T19:11:18.050Z,35.53
2023-02-11T19:13:48.083Z,35.67
2023-02-11T19:16:16.967Z,34.38
2023-02-11T19:18:43.859Z,32.10
2023-02-11T19:21:12.606Z,32.42
2023-02-11T19:23:40.048Z,37.20
2023-02-11T19:26:07.344Z,28.73
2023-02-11T19:28:37.536Z,33.92
2023-02-11T19:31:10.575Z,34.95
2023-02-11T19:33:37.645Z,32.92
2023-02-11T19:36:09.809Z,33.05
2023-02-11T19:38:38.315Z,35.92
2023-02-11T19:41:05.402Z,34.40
2023-02-11T19:43:32.448Z,33.67
2023-02-11T19:46:02.076Z,40.53
2023-02-11T19:48:29.182Z,39.25
2023-02-11T19:50:56.704Z,35.20
2023-02-11T19:53:24.038Z,37.33
2023-02-11T19:55:51.407Z,35.38
2023-02-11T19:58:18.516Z,31.88
2023-02-11T20:00:45.499Z,36.33
2023-02-11T20:03:12.573Z,38.22
2023-02-11T20:05:42.666Z,41.40
2023-02-11T20:08:09.925Z,42.30
2023-02-11T20:10:37.082Z,39.38
2023-02-11T20:13:04.069Z,39.63
2023-02-11T20:15:31.364Z,44.22
2023-02-11T20:17:58.599Z,37.95
2023-02-11T20:20:25.525Z,44.33
2023-02-11T20:22:52.841Z,37.72
2023-02-11T20:25:19.827Z,42.58
2023-02-11T20:27:46.895Z,40.75
2023-02-11T20:30:14.589Z,36.30
2023-02-11T20:32:41.665Z,39.00
2023-02-11T20:35:09.319Z,38.63
2023-02-11T20:37:36.927Z,41.35
2023-02-11T20:40:04.017Z,37.13
2023-02-11T20:42:31.099Z,43.15
2023-02-11T20:44:58.323Z,41.10
2023-02-11T20:47:25.277Z,40.97
2023-02-11T20:49:55.064Z,45.45
2023-02-11T20:52:22.196Z,37.42
2023-02-11T20:54:49.249Z,41.50
2023-02-11T20:57:16.293Z,41.90
2023-02-11T20:59:43.188Z,48.58
2023-02-11T21:02:10.371Z,45.80
2023-02-11T21:04:39.072Z,37.13
2023-02-11T21:07:06.439Z,45.05
2023-02-11T21:09:34.031Z,41.83
2023-02-11T21:12:01.961Z,41.20
2023-02-11T21:14:29.907Z,40.65
2023-02-11T21:16:57.702Z,39.75
2023-02-11T21:19:24.882Z,39.47
2023-02-11T21:21:52.009Z,39.05
2023-02-11T21:24:19.026Z,39.05
2023-02-11T21:26:46.050Z,39.72
2023-02-11T21:29:13.297Z,42.28
2023-02-11T21:31:40.621Z,43.85
2023-02-11T21:34:08.195Z,43.10
2023-02-11T21:36:35.217Z,37.50
2023-02-11T21:39:03.845Z,42.63
2023-02-11T21:41:31.324Z,50.40
2023-02-11T21:43:58.514Z,39.80
2023-02-11T21:46:27.427Z,35.65
2023-02-11T21:48:54.476Z,46.35
2023-02-11T21:51:25.003Z,42.80
2023-02-11T21:53:57.097Z,37.50
2023-02-11T21:56:26.474Z,45.33
2023-02-11T21:58:55.158Z,43.25
2023-02-11T22:01:25.160Z,46.67
2023-02-11T22:03:52.717Z,49.50
2023-02-11T22:06:28.151Z,45.95
2023-02-11T22:11:23.063Z,49.78
2023-02-11T22:13:55.435Z,50.33
2023-02-11T22:16:23.177Z,52.03
2023-02-11T22:18:50.430Z,48.60
2023-02-11T22:21:20.515Z,47.58
2023-02-11T22:23:47.729Z,44.40
2023-02-11T22:26:18.049Z,45.63
2023-02-11T22:28:46.071Z,50.78
2023-02-11T22:31:15.835Z,46.22
2023-02-11T22:33:44.283Z,45.72
2023-02-11T22:36:16.777Z,48.28
2023-02-11T22:38:43.962Z,45.90
2023-02-11T22:41:12.280Z,44.92
2023-02-11T22:43:40.044Z,44.70
2023-02-11T22:46:07.916Z,42.42
2023-02-11T22:48:36.107Z,54.80
2023-02-11T22:51:29.902Z,85.90
2023-02-11T22:54:00.336Z,120.63
2023-02-11T22:56:28.772Z,90.95
2023-02-11T22:59:00.701Z,111.60
2023-02-11T23:01:28.791Z,71.68
2023-02-11T23:03:56.483Z,61.30
2023-02-11T23:06:23.584Z,52.60
2023-02-11T23:08:51.935Z,55.75
2023-02-11T23:11:21.959Z,47.53
2023-02-11T23:13:51.148Z,47.03
2023-02-11T23:16:22.163Z,48.85
2023-02-11T23:18:50.484Z,52.17
2023-02-11T23:21:23.146Z,48.28
2023-02-11T23:23:55.719Z,46.05
2023-02-11T23:26:22.694Z,52.50
2023-02-11T23:28:50.221Z,51.78
2023-02-11T23:31:26.146Z,45.15
2023-02-11T23:33:53.932Z,54.10
2023-02-11T23:36:22.016Z,58.58
2023-02-11T23:38:49.672Z,53.03
2023-02-11T23:41:17.703Z,52.03
2023-02-11T23:43:48.537Z,48.60
2023-02-11T23:46:15.833Z,57.83
2023-02-11T23:48:43.409Z,55.10
2023-02-11T23:51:10.682Z,47.55
2023-02-11T23:53:39.207Z,50.30
2023-02-11T23:56:11.722Z,60.97
2023-02-11T23:58:39.272Z,57.75
